Big Piney, WY weather

Big Piney-Marbleton Airport (AMOS), Big Piney, WY: 4/20/2015 21:53
Visibility10 statute milesclear sky
View 7-Day Forecast
Area Summary
Sky/CloudsSky Clear
Weather [last 24 hours]None [snow began 02:43; snow ended 03:00 ]
Pressure29.97 in.Hg (1015 hPa)
Dew Point16 F (-8.9 C)
Relative Humidity43.6 %
Last 24-Hour Precip.Trace
Reading TimePrecipitation
6-hr ending 4/20@05:53Trace
Temperature36 F (2.2 C)red thermometer
Wind Chill28 F (-2.21 C)
Reading TimeMinimum to Maximum Temperature
6-hr ending 4/20@17:5348.9 F to 60.1 F (9.4 C to 15.6 C)
6-hr ending 4/20@11:5323 F to 48.9 F (-5 C to 9.4 C)
6-hr ending 4/20@05:5326.1 F to 36 F (-3.3 C to 2.2 C)
6-hr ending 4/19@23:5328.9 F to 52 F (-1.7 C to 11.1 C)
24-hr ending 4/20@00:5328.9 F to 55.9 F (-1.7 C to 13.3 C)
Wind11.5 MPH (10 KT) green arrow pointing at 0 degrees
Wind FromNorth (350 Degrees)
Rolling 24-hr Peak Wind31.1 MPH (27 KT) on 4/20@14:51
Rolling 24-hr Peak Wind FromNorth (350 Degrees)
Twilight Begins05:59Sunshine Yesterday
Sunrise06:29N/A
Sunset20:10
Twilight Ends20:40
METARKBPI 210353Z AUTO 35010KT 10SM CLR 02/M09 A2997 RMK AO2 SLP120 T00221089
Tags: